Time;durP1;ratioP1;P1;durP2;ratioP2;P2;SDS_P1;SDS_P2;PMS_P1;PMS_P2;Temp;Humidity;BMP_temperature;BMP_pressure;BME280_temperature;BME280_humidity;BME280_pressure;Samples;Min_cycle;Max_cycle;Signal;HPM_P1;HPM_P2
2024/04/20 00:04:45;;;;;;;1.70;1.10;;;;;;;8.37;100.00;101604.69;4660489;30;20072;-95
2024/04/20 00:08:37;;;;;;;3.05;0.80;;;;;;;8.29;100.00;101613.09;4685484;30;20058;-95
2024/04/20 00:11:31;;;;;;;2.08;1.10;;;;;;;8.22;100.00;101606.53;4664575;30;20513;-95
2024/04/20 00:14:33;;;;;;;3.10;1.23;;;;;;;8.13;100.00;101614.09;4680154;30;20077;-95
2024/04/20 00:18:06;;;;;;;4.63;2.10;;;;;;;8.12;100.00;101614.19;4651556;30;20050;-95
2024/04/20 00:21:22;;;;;;;3.38;1.35;;;;;;;8.00;100.00;101631.59;4693558;30;20064;-95
2024/04/20 00:23:50;;;;;;;4.22;1.60;;;;;;;7.79;100.00;101621.50;4713969;30;20029;-95
2024/04/20 00:35:22;;;;;;;2.85;1.38;;;;;;;7.62;100.00;101626.03;4733450;30;20115;-95
2024/04/20 00:37:46;;;;;;;4.32;2.00;;;;;;;7.48;100.00;101624.28;4746538;30;20044;-95
2024/04/20 00:40:15;;;;;;;9.32;2.20;;;;;;;7.51;100.00;101613.56;4733258;30;20040;-95
2024/04/20 00:42:50;;;;;;;7.20;2.40;;;;;;;7.61;100.00;101615.63;4714310;30;20044;-95
2024/04/20 00:49:40;;;;;;;4.95;1.75;;;;;;;7.45;100.00;101621.84;4714048;30;20102;-94
2024/04/20 00:52:22;;;;;;;6.68;2.60;;;;;;;7.57;100.00;101638.63;4698323;30;20142;-95
2024/04/20 00:55:36;;;;;;;6.55;2.28;;;;;;;7.62;100.00;101635.72;4734586;30;20056;-94
2024/04/20 00:59:08;;;;;;;7.20;2.17;;;;;;;7.68;100.00;101623.03;4731149;30;20514;-95
2024/04/20 01:01:57;;;;;;;6.53;2.13;;;;;;;7.65;100.00;101617.97;4746007;30;20083;-95
2024/04/20 01:04:32;;;;;;;4.25;2.65;;;;;;;7.64;100.00;101634.69;4719326;30;20043;-94
2024/04/20 01:08:53;;;;;;;5.70;2.55;;;;;;;7.69;100.00;101637.03;4743878;30;20055;-95
2024/04/20 01:12:04;;;;;;;6.20;2.23;;;;;;;7.68;100.00;101636.19;4743260;30;20110;-95
2024/04/20 01:15:40;;;;;;;8.35;2.72;;;;;;;7.69;100.00;101629.97;4731927;30;20037;-94
2024/04/20 01:18:35;;;;;;;6.80;2.40;;;;;;;7.71;100.00;101627.25;4719370;30;20047;-94
2024/04/20 01:35:11;;;;;;;5.18;2.50;;;;;;;7.65;100.00;101631.13;4731378;30;19983;-94
2024/04/20 01:42:34;;;;;;;7.22;2.22;;;;;;;7.38;100.00;101642.41;4713657;30;20508;-94
2024/04/20 01:54:16;;;;;;;3.67;1.60;;;;;;;6.90;100.00;101632.94;4715926;30;20138;-95
2024/04/20 02:10:22;;;;;;;6.70;2.08;;;;;;;6.75;100.00;101641.75;4615708;31;20054;-96
2024/04/20 03:05:41;;;;;;;6.30;2.60;;;;;;;6.36;100.00;101678.06;4647118;30;20064;-95
2024/04/20 03:21:02;;;;;;;8.45;2.67;;;;;;;6.54;100.00;101669.16;4669631;30;20086;-95
2024/04/20 03:28:36;;;;;;;6.82;2.40;;;;;;;6.66;100.00;101691.25;4696477;30;20130;-94
2024/04/20 03:31:05;;;;;;;4.63;2.03;;;;;;;6.61;100.00;101690.66;4690772;30;20057;-95
2024/04/20 03:42:29;;;;;;;8.00;2.53;;;;;;;6.47;100.00;101690.63;4692549;30;20047;-95
2024/04/20 03:45:07;;;;;;;7.88;2.45;;;;;;;6.58;100.00;101696.94;4681407;30;20062;-95
2024/04/20 03:51:31;;;;;;;4.53;2.50;;;;;;;6.52;100.00;101684.16;4661134;30;20061;-95
2024/04/20 03:54:46;;;;;;;4.63;2.60;;;;;;;6.54;100.00;101684.94;4653076;30;20038;-95
2024/04/20 03:57:28;;;;;;;;;;;;;;;;;;;;;
2024/04/20 04:09:26;;;;;;;3.38;1.98;;;;;;;6.41;100.00;101704.91;4698790;30;20049;-96
2024/04/20 04:12:46;;;;;;;5.15;2.33;;;;;;;6.28;100.00;101710.88;4695588;30;20072;-95
2024/04/20 04:23:57;;;;;;;7.43;2.45;;;;;;;5.99;100.00;101713.25;4642186;30;20039;-95
2024/04/20 04:26:41;;;;;;;2.63;1.95;;;;;;;5.91;100.00;101711.03;4635140;30;20042;-95
2024/04/20 04:29:07;;;;;;;6.20;2.22;;;;;;;5.71;100.00;101718.22;4661229;30;20076;-94
2024/04/20 04:32:25;;;;;;;5.07;2.35;;;;;;;5.65;100.00;101722.94;4647128;30;20219;-94
2024/04/20 04:35:41;;;;;;;9.35;2.25;;;;;;;5.58;100.00;101723.25;4658619;30;20088;-94
2024/04/20 04:38:32;;;;;;;3.20;1.65;;;;;;;5.59;100.00;101724.94;4639632;30;20383;-93
2024/04/20 04:45:16;;;;;;;8.23;2.30;;;;;;;5.57;100.00;101726.78;4651165;30;20053;-95
2024/04/20 04:48:26;;;;;;;3.28;2.10;;;;;;;5.45;100.00;101727.41;4645352;30;20093;-96
2024/04/20 04:59:34;;;;;;;8.10;2.40;;;;;;;5.43;100.00;101738.00;4708019;30;20093;-94
2024/04/20 05:05:51;;;;;;;4.40;2.30;;;;;;;5.53;100.00;101750.63;4701051;30;20128;-94
2024/04/20 05:12:42;;;;;;;3.85;1.95;;;;;;;5.49;100.00;101764.84;4736371;30;20124;-94
2024/04/20 05:15:34;;;;;;;6.25;2.55;;;;;;;5.48;100.00;101757.91;4706309;30;20040;-93
2024/04/20 05:21:40;;;;;;;4.07;1.83;;;;;;;5.33;100.00;101763.84;4692344;30;20055;-93
2024/04/20 05:24:29;;;;;;;6.15;2.08;;;;;;;5.30;100.00;101761.34;4741928;30;20475;-94
2024/04/20 05:56:45;;;;;;;4.63;2.33;;;;;;;5.63;100.00;101793.84;4736964;30;20044;-96
2024/04/20 05:59:11;;;;;;;6.75;1.95;;;;;;;5.61;100.00;101789.56;4722406;30;20052;-95
2024/04/20 06:05:52;;;;;;;3.95;2.45;;;;;;;5.71;100.00;101810.03;4746088;30;20072;-96
2024/04/20 06:08:56;;;;;;;5.00;2.10;;;;;;;5.76;100.00;101798.44;4718731;30;20139;-95
2024/04/20 06:11:45;;;;;;;6.30;2.00;;;;;;;5.88;100.00;101799.56;4701877;30;20052;-94
2024/04/20 06:14:28;;;;;;;5.00;2.00;;;;;;;5.96;100.00;101802.66;4713106;30;20058;-94
2024/04/20 06:17:25;;;;;;;3.20;1.88;;;;;;;6.01;100.00;101811.16;4697875;30;20053;-94
2024/04/20 06:20:37;;;;;;;8.75;2.50;;;;;;;6.05;100.00;101809.25;4694705;30;20148;-94
2024/04/20 06:23:04;;;;;;;9.35;2.38;;;;;;;6.14;100.00;101810.53;4682086;30;20053;-96
2024/04/20 06:26:38;;;;;;;4.78;2.35;;;;;;;6.32;100.00;101809.53;4678424;30;20056;-96
2024/04/20 06:29:04;;;;;;;4.15;2.63;;;;;;;6.32;100.00;101809.53;4695064;30;20050;-93
2024/04/20 06:31:30;;;;;;;5.60;2.30;;;;;;;6.42;100.00;101804.66;4718882;30;20068;-93
2024/04/20 06:34:02;;;;;;;5.85;2.15;;;;;;;6.47;100.00;101807.00;4694929;30;20113;-93
2024/04/20 06:36:30;;;;;;;5.03;2.50;;;;;;;6.45;100.00;101811.50;4714014;30;20133;-94
2024/04/20 06:38:56;;;;;;;6.75;3.95;;;;;;;6.53;100.00;101826.88;4684596;30;20730;-94
2024/04/20 06:41:22;;;;;;;7.90;4.40;;;;;;;6.53;100.00;101816.38;4696704;30;20049;-93
2024/04/20 06:43:52;;;;;;;6.22;3.78;;;;;;;6.55;100.00;101830.25;4705942;30;20740;-94
2024/04/20 06:46:20;;;;;;;10.60;4.03;;;;;;;6.54;100.00;101826.78;4706525;30;20076;-94
2024/04/20 06:48:49;;;;;;;8.77;4.85;;;;;;;6.58;100.00;101838.81;4734176;30;20048;-93
2024/04/20 06:51:15;;;;;;;10.35;4.47;;;;;;;6.58;100.00;101828.31;4728116;30;20595;-93
2024/04/20 06:53:44;;;;;;;7.93;3.65;;;;;;;6.65;100.00;101833.22;4703187;30;20581;-93
2024/04/20 06:56:12;;;;;;;13.82;3.33;;;;;;;6.76;100.00;101838.75;4699029;30;20075;-94
2024/04/20 07:02:13;;;;;;;6.03;2.97;;;;;;;6.79;100.00;101828.06;4716638;30;20041;-93
2024/04/20 07:04:39;;;;;;;5.88;2.97;;;;;;;6.90;100.00;101840.59;4714633;30;20531;-93
2024/04/20 07:07:05;;;;;;;6.72;3.08;;;;;;;7.10;100.00;101849.16;4730880;30;20106;-93
2024/04/20 07:09:34;;;;;;;12.63;3.65;;;;;;;7.32;100.00;101847.94;4730739;30;20124;-94
2024/04/20 07:12:02;;;;;;;5.90;2.88;;;;;;;7.52;100.00;101840.66;4707807;30;20032;-94
2024/04/20 07:14:28;;;;;;;5.40;2.53;;;;;;;7.79;100.00;101839.97;4706857;30;20032;-93
2024/04/20 07:16:54;;;;;;;4.32;2.30;;;;;;;7.95;100.00;101842.53;4701439;30;20048;-94
2024/04/20 07:19:20;;;;;;;6.30;3.70;;;;;;;8.12;100.00;101854.66;4718268;30;20036;-93
2024/04/20 07:21:46;;;;;;;8.50;3.38;;;;;;;8.21;100.00;101855.06;4718649;30;20058;-94
2024/04/20 07:24:12;;;;;;;10.48;3.80;;;;;;;8.53;100.00;101860.13;4714883;30;20044;-94
2024/04/20 07:26:38;;;;;;;8.25;3.97;;;;;;;8.76;100.00;101853.44;4701484;30;20074;-94
2024/04/20 07:29:04;;;;;;;10.43;4.25;;;;;;;9.04;100.00;101848.19;4701832;30;20072;-94
2024/04/20 07:31:30;;;;;;;8.20;3.20;;;;;;;9.16;100.00;101846.53;4729772;30;20045;-94
2024/04/20 07:33:57;;;;;;;10.93;3.67;;;;;;;9.33;100.00;101839.31;4716012;30;20526;-93
2024/04/20 07:36:24;;;;;;;9.00;3.72;;;;;;;9.60;100.00;101864.81;4734111;30;20036;-95
2024/04/20 07:38:50;;;;;;;7.03;3.50;;;;;;;9.74;100.00;101867.38;4702619;30;20487;-94
2024/04/20 07:41:19;;;;;;;8.00;3.67;;;;;;;9.71;100.00;101861.47;4729790;30;20074;-93
2024/04/20 07:43:45;;;;;;;11.18;4.15;;;;;;;9.55;100.00;101854.56;4713894;30;20046;-93
2024/04/20 07:46:11;;;;;;;10.05;3.90;;;;;;;9.53;100.00;101862.59;4702134;30;20044;-94
2024/04/20 07:48:38;;;;;;;8.63;4.30;;;;;;;9.65;100.00;101860.91;4701963;30;20102;-94
2024/04/20 07:51:17;;;;;;;10.07;4.63;;;;;;;9.62;100.00;101863.75;4729023;30;20056;-94
2024/04/20 07:53:43;;;;;;;11.48;4.82;;;;;;;9.62;100.00;101869.03;4702351;30;20036;-94
2024/04/20 07:56:09;;;;;;;9.73;5.22;;;;;;;9.70;100.00;101871.16;4707001;30;20050;-93
2024/04/20 07:58:35;;;;;;;8.43;3.95;;;;;;;9.62;100.00;101869.03;4701809;30;20040;-93
2024/04/20 08:01:01;;;;;;;8.93;4.00;;;;;;;9.62;100.00;101874.31;4715543;30;20045;-95
2024/04/20 08:03:26;;;;;;;10.77;4.40;;;;;;;9.57;100.00;101878.22;4705411;30;20041;-94
2024/04/20 08:05:52;;;;;;;11.93;3.83;;;;;;;9.58;100.00;101869.34;4736191;30;20071;-94
2024/04/20 08:08:21;;;;;;;11.10;4.60;;;;;;;9.68;100.00;101883.66;4712958;30;20102;-95
2024/04/20 08:10:47;;;;;;;14.80;4.63;;;;;;;9.74;100.00;101880.59;4686163;30;20036;-93
2024/04/20 08:13:13;;;;;;;7.90;3.70;;;;;;;9.63;100.00;101872.53;4727102;30;20036;-95
2024/04/20 08:15:39;;;;;;;10.32;3.72;;;;;;;9.49;100.00;101869.00;4715082;30;20372;-96
2024/04/20 08:18:05;;;;;;;9.50;4.15;;;;;;;9.50;100.00;101883.06;4709025;30;20411;-95
2024/04/20 08:20:31;;;;;;;11.55;3.75;;;;;;;9.49;100.00;101879.56;4713944;30;20036;-93
2024/04/20 08:22:56;;;;;;;12.52;4.18;;;;;;;9.55;100.00;101889.75;4728259;30;20051;-93
2024/04/20 08:25:22;;;;;;;7.03;4.10;;;;;;;9.61;100.00;101891.13;4712654;30;20044;-93
2024/04/20 08:27:48;;;;;;;12.48;4.03;;;;;;;9.67;100.00;101880.16;4722412;30;20702;-94
2024/04/20 08:30:14;;;;;;;7.95;3.97;;;;;;;9.73;100.00;101875.41;4724375;30;20045;-94
2024/04/20 08:32:46;;;;;;;11.07;3.85;;;;;;;9.85;100.00;101882.50;4726268;30;20048;-94
2024/04/20 08:35:17;;;;;;;9.15;3.78;;;;;;;9.97;100.00;101886.09;4713653;30;20052;-94
2024/04/20 08:37:55;;;;;;;8.65;4.38;;;;;;;9.99;100.00;101878.91;4706811;30;20032;-93
2024/04/20 08:40:37;;;;;;;10.88;4.85;;;;;;;10.11;100.00;101890.47;4712891;30;20086;-95
2024/04/20 08:43:07;;;;;;;12.18;4.10;;;;;;;10.15;100.00;101880.50;4698996;30;20044;-94
2024/04/20 08:45:35;;;;;;;13.95;5.35;;;;;;;10.16;100.00;101885.69;4698909;30;20044;-94
2024/04/20 08:48:01;;;;;;;7.75;3.13;;;;;;;10.22;100.00;101889.72;4714076;30;20033;-95
2024/04/20 08:50:32;;;;;;;9.23;4.10;;;;;;;10.25;100.00;101896.56;4713785;30;20177;-96
2024/04/20 08:53:00;;;;;;;10.05;3.22;;;;;;;10.34;100.00;101887.16;4714690;30;20037;-93
2024/04/20 08:55:29;;;;;;;6.88;3.72;;;;;;;10.40;100.00;101884.94;4696643;30;20135;-94
2024/04/20 08:57:55;;;;;;;11.05;3.92;;;;;;;10.52;100.00;101888.56;4713882;30;20040;-94
2024/04/20 09:00:22;;;;;;;9.23;4.15;;;;;;;10.63;100.00;101893.06;4714369;30;20045;-94
2024/04/20 09:02:49;;;;;;;10.85;3.88;;;;;;;10.65;100.00;101888.50;4714127;30;20454;-94
2024/04/20 09:05:16;;;;;;;8.57;4.30;;;;;;;10.72;100.00;101888.91;4718402;30;20048;-95
2024/04/20 09:07:42;;;;;;;9.50;4.15;;;;;;;10.82;100.00;101897.03;4697757;30;20372;-93
2024/04/20 09:10:14;;;;;;;8.90;2.90;;;;;;;10.90;100.00;101888.56;4711384;30;20041;-93
2024/04/20 09:12:40;;;;;;;9.60;3.60;;;;;;;10.90;100.00;101891.19;4701015;30;20526;-94
2024/04/20 09:15:09;;;;;;;5.70;2.90;;;;;;;10.98;100.00;101888.00;4697942;30;20048;-93
2024/04/20 09:17:35;;;;;;;8.82;3.13;;;;;;;10.89;100.00;101884.25;4699607;30;20518;-93
2024/04/20 09:20:01;;;;;;;6.95;2.97;;;;;;;10.99;100.00;101895.00;4697772;30;20048;-93
2024/04/20 09:22:26;;;;;;;5.60;2.65;;;;;;;11.00;100.00;101886.94;4719986;30;20466;-93
2024/04/20 09:25:03;;;;;;;4.13;2.40;;;;;;;11.15;100.00;101878.81;4697558;30;20242;-94
2024/04/20 09:27:30;;;;;;;5.50;2.67;;;;;;;11.21;100.00;101881.03;4712064;30;20033;-93
2024/04/20 09:29:56;;;;;;;4.13;2.42;;;;;;;11.34;100.00;101886.25;4725619;30;20037;-93
2024/04/20 09:32:27;;;;;;;5.38;2.45;;;;;;;11.39;100.00;101888.56;4713175;30;20246;-94
2024/04/20 09:34:53;;;;;;;5.78;2.40;;;;;;;11.48;100.00;101881.75;4713467;30;20040;-94
2024/04/20 09:37:20;;;;;;;4.82;1.88;;;;;;;11.63;100.00;101891.19;4702416;30;20064;-94
2024/04/20 09:39:45;;;;;;;5.75;1.83;;;;;;;11.78;100.00;101896.28;4703855;30;20080;-94
2024/04/20 09:42:13;;;;;;;2.33;1.73;;;;;;;11.90;100.00;101889.22;4716713;30;20816;-93
2024/04/20 09:44:40;;;;;;;7.53;2.38;;;;;;;11.97;100.00;101882.50;4715782;30;20230;-94
2024/04/20 09:47:06;;;;;;;3.35;2.00;;;;;;;12.07;100.00;101893.19;4701491;30;20103;-94
2024/04/20 09:49:34;;;;;;;2.60;1.90;;;;;;;12.20;100.00;101893.13;4731570;30;20442;-94
2024/04/20 09:52:06;;;;;;;3.67;1.50;;;;;;;12.32;100.00;101883.41;4702500;30;20764;-94
2024/04/20 09:54:39;;;;;;;1.50;0.80;;;;;;;12.38;100.00;101882.06;4701544;30;20040;-93
2024/04/20 09:57:07;;;;;;;2.88;1.40;;;;;;;12.47;100.00;101883.97;4728954;30;20040;-94
2024/04/20 09:59:35;;;;;;;3.88;1.42;;;;;;;12.57;100.00;101880.59;4738742;30;20544;-93
2024/04/20 10:02:03;;;;;;;2.50;0.98;;;;;;;12.63;100.00;101878.31;4715809;30;20044;-94
2024/04/20 10:04:30;;;;;;;3.22;1.42;;;;;;;12.71;100.00;101877.69;4702598;30;20045;-94
2024/04/20 10:06:59;;;;;;;5.65;1.35;;;;;;;12.76;100.00;101878.16;4713058;30;20330;-93
2024/04/20 10:09:26;;;;;;;5.93;1.48;;;;;;;12.84;100.00;101876.69;4735715;30;20531;-93
2024/04/20 10:11:53;;;;;;;2.30;1.05;;;;;;;12.88;100.00;101884.28;4717121;30;20040;-94
2024/04/20 10:14:24;;;;;;;3.42;0.98;;;;;;;12.93;100.00;101880.44;4718786;30;20041;-93
2024/04/20 10:16:52;;;;;;;7.65;1.10;;;;;;;13.02;100.00;101880.53;4719728;30;20045;-93
2024/04/20 10:19:19;;;;;;;3.75;1.00;;;;;;;13.01;99.13;101873.53;4716051;30;20504;-94
2024/04/20 10:21:46;;;;;;;4.75;1.00;;;;;;;13.05;97.60;101866.16;4727079;30;20043;-94
2024/04/20 10:24:12;;;;;;;2.63;1.08;;;;;;;13.09;97.69;101875.53;4717644;30;20483;-94
2024/04/20 10:26:44;;;;;;;4.80;1.23;;;;;;;13.09;96.30;101880.84;4716621;30;20055;-94
2024/04/20 10:29:20;;;;;;;3.78;1.10;;;;;;;13.17;97.47;101879.41;4702845;30;20052;-95
2024/04/20 10:31:57;;;;;;;3.17;1.10;;;;;;;13.25;93.67;101864.50;4701592;30;20439;-94
2024/04/20 10:34:25;;;;;;;3.67;0.88;;;;;;;13.23;93.44;101855.00;4731070;30;20056;-93
2024/04/20 10:37:01;;;;;;;1.67;1.00;;;;;;;13.25;91.70;101861.03;4719965;30;20189;-94
2024/04/20 10:39:29;;;;;;;3.80;1.17;;;;;;;13.32;91.34;101869.31;4705541;30;20097;-93
2024/04/20 10:42:10;;;;;;;2.85;1.10;;;;;;;13.44;89.68;101870.13;4717608;30;20096;-94
2024/04/20 10:44:36;;;;;;;2.80;0.93;;;;;;;13.45;89.58;101877.13;4704017;30;20509;-94
2024/04/20 10:47:02;;;;;;;2.22;0.88;;;;;;;13.55;88.46;101863.94;4703578;30;20774;-94
2024/04/20 10:49:29;;;;;;;3.75;0.73;;;;;;;13.64;87.08;101848.06;4729246;30;20554;-94
2024/04/20 10:51:57;;;;;;;2.83;0.95;;;;;;;13.80;84.89;101861.84;4700451;30;20495;-95
2024/04/20 10:54:24;;;;;;;1.13;0.70;;;;;;;13.90;84.07;101862.78;4728636;30;20044;-95
2024/04/20 10:56:52;;;;;;;2.53;0.80;;;;;;;13.96;84.57;101864.06;4700451;30;20090;-95
2024/04/20 10:59:22;;;;;;;1.55;0.80;;;;;;;14.12;83.23;101863.56;4728037;30;20420;-95
2024/04/20 11:01:48;;;;;;;1.70;0.70;;;;;;;14.10;82.53;101857.53;4703149;30;20048;-95
2024/04/20 11:04:14;;;;;;;4.80;0.98;;;;;;;14.07;81.22;101850.69;4716838;30;20044;-94
2024/04/20 11:06:40;;;;;;;3.72;1.45;;;;;;;14.04;80.18;101845.63;4713795;30;20036;-92
2024/04/20 11:09:13;;;;;;;2.65;1.00;;;;;;;14.06;79.95;101853.47;4714230;30;20045;-95
2024/04/20 11:11:39;;;;;;;2.60;1.13;;;;;;;14.04;81.17;101848.28;4700387;30;20040;-95
2024/04/20 11:14:06;;;;;;;3.25;0.90;;;;;;;14.18;80.68;101862.19;4699280;30;20368;-95
2024/04/20 11:16:32;;;;;;;3.03;0.93;;;;;;;14.23;78.52;101844.88;4710942;30;20033;-95
2024/04/20 11:19:02;;;;;;;3.55;1.45;;;;;;;14.26;75.00;101846.41;4697137;30;20082;-95
2024/04/20 11:21:30;;;;;;;2.13;0.82;;;;;;;14.11;72.78;101845.94;4729482;30;20036;-95
2024/04/20 11:23:56;;;;;;;3.30;1.10;;;;;;;13.99;72.42;101842.53;4724993;30;20040;-95
2024/04/20 11:26:25;;;;;;;5.68;1.00;;;;;;;13.96;71.96;101845.44;4730214;30;20043;-95
2024/04/20 11:28:51;;;;;;;2.25;0.90;;;;;;;13.95;69.78;101839.28;4694882;30;20041;-92
2024/04/20 11:31:18;;;;;;;1.42;0.65;;;;;;;13.92;68.18;101844.03;4700364;30;20181;-93
2024/04/20 11:33:46;;;;;;;2.95;0.98;;;;;;;14.01;67.55;101841.41;4727719;30;20041;-92
2024/04/20 11:36:16;;;;;;;1.63;0.70;;;;;;;14.18;66.99;101835.59;4716758;30;20040;-95
2024/04/20 11:38:42;;;;;;;2.28;0.60;;;;;;;14.29;66.44;101839.97;4719276;30;20495;-95
2024/04/20 11:41:08;;;;;;;2.38;0.55;;;;;;;14.46;66.17;101841.19;4705364;30;20037;-95
2024/04/20 11:43:37;;;;;;;1.63;0.60;;;;;;;14.68;66.50;101845.44;4702570;30;20506;-95
2024/04/20 11:46:03;;;;;;;1.95;0.60;;;;;;;14.71;65.86;101844.31;4727505;30;20040;-94
2024/04/20 11:48:30;;;;;;;3.53;0.88;;;;;;;14.70;65.45;101843.44;4714670;30;20064;-95
2024/04/20 11:51:25;;;;;;;1.85;1.00;;;;;;;14.64;64.74;101834.22;4721215;30;20049;-94
2024/04/20 11:56:42;;;;;;;1.35;0.90;;;;;;;14.63;66.79;101831.69;4730478;30;20421;-94
2024/04/20 11:59:13;;;;;;;4.22;0.85;;;;;;;14.78;65.68;101836.63;4714703;30;20049;-95
2024/04/20 12:10:19;;;;;;;4.38;0.98;;;;;;;15.34;66.88;101823.59;4727832;30;19929;-95
2024/04/20 12:17:16;;;;;;;6.80;0.90;;;;;;;15.56;68.39;101833.13;4731924;30;20544;-95
2024/04/20 12:46:03;;;;;;;2.75;1.00;;;;;;;15.60;62.49;101831.88;4725065;30;20045;-94
2024/04/20 13:18:26;;;;;;;1.63;1.10;;;;;;;16.56;64.24;101813.09;4651849;30;20104;-93
2024/04/20 13:20:56;;;;;;;4.15;1.20;;;;;;;16.66;63.96;101813.03;4661820;30;20066;-95
2024/04/20 13:23:22;;;;;;;6.30;1.17;;;;;;;16.69;63.34;101801.22;4685745;30;20111;-95
2024/04/20 13:25:52;;;;;;;2.17;0.70;;;;;;;16.89;62.29;101811.75;4732223;30;20482;-94
2024/04/20 14:35:04;;;;;;;4.28;1.10;;;;;;;16.55;66.77;101791.88;4800404;24;20059;-89
2024/04/20 14:42:13;;;;;;;2.65;1.08;;;;;;;16.92;64.16;101782.06;4764593;30;20039;-93
2024/04/20 14:44:39;;;;;;;5.60;1.67;;;;;;;16.84;65.45;101780.16;4737665;30;20702;-89
2024/04/20 14:47:05;;;;;;;2.80;1.25;;;;;;;16.83;65.45;101784.66;4724092;30;20516;-91
2024/04/20 14:49:42;;;;;;;1.48;1.13;;;;;;;16.79;64.86;101777.94;4718660;30;20052;-92
2024/04/20 15:05:33;;;;;;;3.58;1.30;;;;;;;16.40;63.63;101771.06;4767693;30;20124;-90
2024/04/20 15:08:14;;;;;;;3.08;1.10;;;;;;;16.24;67.05;101767.22;4754598;30;20058;-88
2024/04/20 15:11:25;;;;;;;8.75;1.30;;;;;;;16.19;66.86;101766.00;4753824;30;20318;-91
2024/04/20 15:17:02;;;;;;;2.97;1.23;;;;;;;15.99;68.89;101760.75;4761960;30;20105;-91
2024/04/20 15:19:28;;;;;;;3.10;1.30;;;;;;;16.08;68.20;101767.03;4722940;30;20051;-90
2024/04/20 15:22:19;;;;;;;;;;;;;;;;;;;;;
2024/04/20 15:33:45;;;;;;;4.10;0.90;;;;;;;16.51;71.33;101747.81;4707711;30;20060;-92
2024/04/20 15:36:17;;;;;;;3.15;1.20;;;;;;;16.59;71.32;101743.41;4677330;30;20057;-91
2024/04/20 15:52:05;;;;;;;3.28;1.08;;;;;;;16.95;67.72;101747.88;4643329;30;20822;-87
2024/04/20 15:54:55;;;;;;;4.00;0.80;;;;;;;16.91;68.83;101735.84;4686556;30;20139;-89
2024/04/20 15:57:20;;;;;;;3.60;1.40;;;;;;;16.81;68.17;101741.25;4722200;30;20097;-91
2024/04/20 15:59:50;;;;;;;4.63;1.00;;;;;;;16.82;67.57;101742.94;4736409;30;20416;-93
2024/04/20 16:02:55;;;;;;;3.08;1.33;;;;;;;16.89;66.97;101742.31;4737168;30;20118;-92
2024/04/20 16:05:27;;;;;;;2.72;1.15;;;;;;;16.89;67.18;101740.50;4736340;30;20040;-92
2024/04/20 16:08:07;;;;;;;10.75;1.83;;;;;;;16.88;65.89;101752.16;4751941;30;20044;-93
2024/04/20 16:10:37;;;;;;;4.55;1.58;;;;;;;16.81;66.16;101751.09;4735621;30;20143;-92
2024/04/20 16:13:07;;;;;;;4.45;1.30;;;;;;;16.68;66.84;101746.97;4721295;30;20639;-93
2024/04/20 16:16:19;;;;;;;4.97;1.38;;;;;;;16.63;66.09;101743.09;4738388;30;20044;-91
2024/04/20 16:19:15;;;;;;;2.25;1.33;;;;;;;16.74;66.80;101734.84;4749037;30;20958;-91
2024/04/20 16:26:06;;;;;;;3.72;1.20;;;;;;;16.65;67.22;101749.09;4734926;30;20055;-91
2024/04/20 16:28:52;;;;;;;5.60;1.60;;;;;;;16.64;67.14;101745.63;4705045;30;20056;-90
2024/04/20 16:31:18;;;;;;;2.67;1.35;;;;;;;16.64;68.06;101732.28;4699428;30;20123;-88
2024/04/20 16:33:44;;;;;;;6.28;1.45;;;;;;;16.66;69.03;101737.47;4731258;30;20407;-87
2024/04/20 16:36:10;;;;;;;3.47;1.42;;;;;;;16.59;70.12;101738.06;4734957;30;20054;-81
2024/04/20 16:38:37;;;;;;;3.17;1.25;;;;;;;16.48;70.64;101739.09;4724333;30;20439;-90
2024/04/20 16:41:07;;;;;;;8.43;1.35;;;;;;;16.47;71.29;101736.59;4740916;30;20071;-82
2024/04/20 16:43:34;;;;;;;3.47;1.25;;;;;;;16.38;71.45;101735.69;4745521;30;20587;-91
2024/04/20 16:46:05;;;;;;;3.67;1.20;;;;;;;16.37;71.76;101729.50;4746943;30;20123;-85
2024/04/20 16:48:32;;;;;;;3.42;1.20;;;;;;;16.40;72.40;101728.38;4717435;30;20040;-85
2024/04/20 16:51:15;;;;;;;2.08;1.20;;;;;;;16.46;72.01;101738.44;4736201;30;20043;-88
2024/04/20 16:53:43;;;;;;;4.32;1.60;;;;;;;16.43;71.71;101737.91;4722403;30;20074;-81
2024/04/20 16:56:48;;;;;;;4.82;1.40;;;;;;;16.47;69.90;101733.94;4721855;30;20044;-92
2024/04/20 16:59:46;;;;;;;2.00;0.90;;;;;;;16.33;70.69;101732.63;4747460;30;20038;-89
2024/04/20 17:06:25;;;;;;;2.75;0.80;;;;;;;16.39;70.30;101737.34;4753616;30;20398;-92
2024/04/20 17:08:51;;;;;;;3.40;1.15;;;;;;;16.41;70.19;101727.38;4738010;30;20047;-86
2024/04/20 17:11:17;;;;;;;3.15;1.08;;;;;;;16.45;69.66;101735.94;4737898;30;20580;-93
2024/04/20 17:13:43;;;;;;;5.88;1.10;;;;;;;16.43;69.60;101743.25;4732035;30;20062;-94
2024/04/20 17:16:14;;;;;;;3.55;1.20;;;;;;;16.43;70.98;101740.56;4740592;30;20048;-92
2024/04/20 17:18:42;;;;;;;1.50;0.90;;;;;;;16.42;72.41;101742.38;4719163;30;20134;-89
2024/04/20 17:21:34;;;;;;;1.48;0.80;;;;;;;16.38;73.45;101730.34;4720454;30;20222;-92
2024/04/20 17:24:08;;;;;;;1.40;0.88;;;;;;;16.26;76.85;101728.91;4754578;30;20078;-90
2024/04/20 17:26:34;;;;;;;3.00;1.10;;;;;;;16.16;81.54;101734.28;4722478;30;20032;-89
2024/04/20 17:32:31;;;;;;;4.28;1.20;;;;;;;15.99;85.03;101734.94;4759406;30;20394;-88
2024/04/20 17:34:57;;;;;;;2.80;1.13;;;;;;;15.98;80.79;101740.41;4721348;30;20060;-85
2024/04/20 17:37:47;;;;;;;7.57;1.15;;;;;;;15.98;77.96;101727.06;4734283;30;20039;-89
2024/04/20 17:40:31;;;;;;;4.82;1.02;;;;;;;15.95;77.01;101730.88;4728024;30;20032;-92
2024/04/20 17:43:00;;;;;;;4.82;1.08;;;;;;;15.98;77.66;101735.06;4762269;30;20358;-94
2024/04/20 17:45:54;;;;;;;9.75;1.55;;;;;;;16.02;80.59;101731.16;4741220;30;20032;-94
2024/04/20 17:54:56;;;;;;;3.45;1.25;;;;;;;15.85;87.46;101733.56;4746265;30;20049;-94
2024/04/20 17:57:38;;;;;;;3.33;1.45;;;;;;;15.89;87.20;101739.44;4723027;30;20428;-94
2024/04/20 18:06:57;;;;;;;5.95;1.65;;;;;;;15.88;91.34;101735.94;5165500;24;20098;-96
2024/04/20 18:09:23;;;;;;;5.80;1.25;;;;;;;15.92;91.56;101738.31;4749232;30;20067;-95
2024/04/20 18:25:12;;;;;;;3.55;1.25;;;;;;;15.52;93.51;101735.81;4767688;30;20060;-93
2024/04/20 18:38:58;;;;;;;1.95;1.20;;;;;;;15.20;92.58;101739.66;4856154;24;20070;-95
2024/04/20 18:54:58;;;;;;;3.85;1.10;;;;;;;15.07;89.41;101746.13;5762048;24;20035;-91
2024/04/20 18:57:52;;;;;;;4.00;1.40;;;;;;;15.11;89.39;101744.03;4689775;30;20048;-96
2024/04/20 19:09:04;;;;;;;2.95;1.17;;;;;;;14.68;91.40;101751.44;4699824;30;20053;-94
2024/04/20 19:34:08;;;;;;;;;;;;;;;;;;;;;
2024/04/20 19:49:32;;;;;;;3.70;1.27;;;;;;;13.49;85.56;101785.59;4657569;30;20045;-94
2024/04/20 19:51:58;;;;;;;6.20;1.42;;;;;;;13.42;86.01;101785.25;4640992;30;20062;-94
2024/04/20 19:54:24;;;;;;;3.75;1.45;;;;;;;13.32;87.65;101790.50;4707878;30;20061;-95
2024/04/20 19:56:51;;;;;;;9.07;1.80;;;;;;;13.18;91.08;101793.47;4726171;30;20462;-94
2024/04/20 19:59:17;;;;;;;8.35;4.28;;;;;;;12.99;94.40;101787.03;4702170;30;20289;-93
2024/04/20 20:01:42;;;;;;;7.07;2.80;;;;;;;12.87;96.66;101800.34;4717750;30;20579;-95
2024/04/20 20:04:08;;;;;;;4.93;2.60;;;;;;;12.73;98.79;101795.31;4730703;30;20154;-95
2024/04/20 20:06:34;;;;;;;10.75;3.28;;;;;;;12.69;99.96;101796.56;4704912;30;20382;-94
2024/04/20 20:09:00;;;;;;;4.38;2.70;;;;;;;12.70;100.00;101793.78;4695648;30;20125;-94
2024/04/20 20:11:26;;;;;;;6.28;3.03;;;;;;;12.75;100.00;101791.59;4733156;30;20496;-94
2024/04/20 20:13:52;;;;;;;6.78;4.20;;;;;;;12.80;100.00;101801.84;4694902;30;20055;-92
2024/04/20 20:16:19;;;;;;;10.75;3.65;;;;;;;12.77;100.00;101797.59;4705966;30;20211;-93
2024/04/20 20:18:45;;;;;;;5.88;3.60;;;;;;;12.86;100.00;101816.41;4728728;30;20032;-94
2024/04/20 20:21:11;;;;;;;6.65;3.65;;;;;;;12.82;100.00;101801.72;4711974;30;20074;-93
2024/04/20 20:23:37;;;;;;;7.13;3.08;;;;;;;12.82;100.00;101817.63;4711323;30;20502;-93
2024/04/20 20:26:08;;;;;;;11.15;5.05;;;;;;;12.84;100.00;101815.66;4695947;30;20106;-93
2024/04/20 20:28:34;;;;;;;10.27;5.88;;;;;;;12.76;100.00;101816.28;4700691;30;20123;-93
2024/04/20 20:31:01;;;;;;;12.15;4.53;;;;;;;12.71;100.00;101824.63;4717182;30;20203;-93